sensor_id;sensor_type;location;lat;lon;timestamp;P1;durP1;ratioP1;P2;durP2;ratioP2
19929;SDS011;10127;47.780;9.606;2023-04-08T00:01:13;6.57;;;4.32;;
19929;SDS011;10127;47.780;9.606;2023-04-08T00:03:39;7.18;;;4.72;;
19929;SDS011;10127;47.780;9.606;2023-04-08T00:06:04;5.75;;;4.18;;
19929;SDS011;10127;47.780;9.606;2023-04-08T00:08:30;9.70;;;5.35;;
19929;SDS011;10127;47.780;9.606;2023-04-08T00:10:56;7.47;;;4.90;;
19929;SDS011;10127;47.780;9.606;2023-04-08T00:13:21;6.88;;;5.00;;
19929;SDS011;10127;47.780;9.606;2023-04-08T00:15:47;6.78;;;4.57;;
19929;SDS011;10127;47.780;9.606;2023-04-08T00:18:13;4.90;;;4.10;;
19929;SDS011;10127;47.780;9.606;2023-04-08T00:20:41;5.60;;;4.68;;
19929;SDS011;10127;47.780;9.606;2023-04-08T00:23:07;6.65;;;5.32;;
19929;SDS011;10127;47.780;9.606;2023-04-08T00:25:32;8.13;;;5.13;;
19929;SDS011;10127;47.780;9.606;2023-04-08T00:27:58;6.70;;;5.13;;
19929;SDS011;10127;47.780;9.606;2023-04-08T00:30:23;7.57;;;5.35;;
19929;SDS011;10127;47.780;9.606;2023-04-08T00:32:51;7.15;;;4.90;;
19929;SDS011;10127;47.780;9.606;2023-04-08T00:35:16;7.15;;;4.30;;
19929;SDS011;10127;47.780;9.606;2023-04-08T00:37:42;6.85;;;5.15;;
19929;SDS011;10127;47.780;9.606;2023-04-08T00:40:08;6.20;;;4.93;;
19929;SDS011;10127;47.780;9.606;2023-04-08T00:42:33;7.30;;;4.72;;
19929;SDS011;10127;47.780;9.606;2023-04-08T00:44:59;6.80;;;4.60;;
19929;SDS011;10127;47.780;9.606;2023-04-08T00:47:25;5.00;;;4.38;;
19929;SDS011;10127;47.780;9.606;2023-04-08T00:49:50;6.47;;;4.53;;
19929;SDS011;10127;47.780;9.606;2023-04-08T00:52:16;5.85;;;4.35;;
19929;SDS011;10127;47.780;9.606;2023-04-08T00:54:41;6.38;;;4.80;;
19929;SDS011;10127;47.780;9.606;2023-04-08T00:57:07;5.95;;;4.45;;
19929;SDS011;10127;47.780;9.606;2023-04-08T00:59:33;6.38;;;4.40;;
19929;SDS011;10127;47.780;9.606;2023-04-08T01:08:03;6.70;;;4.72;;
19929;SDS011;10127;47.780;9.606;2023-04-08T01:10:32;6.82;;;4.80;;
19929;SDS011;10127;47.780;9.606;2023-04-08T01:13:04;7.28;;;4.82;;
19929;SDS011;10127;47.780;9.606;2023-04-08T01:15:34;8.30;;;5.43;;
19929;SDS011;10127;47.780;9.606;2023-04-08T01:18:04;8.23;;;5.47;;
19929;SDS011;10127;47.780;9.606;2023-04-08T01:20:31;7.18;;;5.30;;
19929;SDS011;10127;47.780;9.606;2023-04-08T01:23:19;5.63;;;4.57;;
19929;SDS011;10127;47.780;9.606;2023-04-08T01:26:09;6.45;;;4.93;;
19929;SDS011;10127;47.780;9.606;2023-04-08T01:28:37;6.88;;;4.80;;
19929;SDS011;10127;47.780;9.606;2023-04-08T01:31:04;5.57;;;4.90;;
19929;SDS011;10127;47.780;9.606;2023-04-08T01:33:31;8.50;;;4.97;;
19929;SDS011;10127;47.780;9.606;2023-04-08T01:35:57;8.10;;;4.82;;
19929;SDS011;10127;47.780;9.606;2023-04-08T01:38:25;7.53;;;5.57;;
19929;SDS011;10127;47.780;9.606;2023-04-08T01:40:52;6.95;;;4.80;;
19929;SDS011;10127;47.780;9.606;2023-04-08T01:43:19;5.15;;;4.38;;
19929;SDS011;10127;47.780;9.606;2023-04-08T01:45:46;6.35;;;5.00;;
19929;SDS011;10127;47.780;9.606;2023-04-08T01:48:13;6.55;;;5.53;;
19929;SDS011;10127;47.780;9.606;2023-04-08T01:50:43;5.45;;;4.70;;
19929;SDS011;10127;47.780;9.606;2023-04-08T01:53:09;7.75;;;5.35;;
19929;SDS011;10127;47.780;9.606;2023-04-08T01:55:36;6.47;;;5.20;;
19929;SDS011;10127;47.780;9.606;2023-04-08T01:58:04;7.15;;;5.25;;
19929;SDS011;10127;47.780;9.606;2023-04-08T02:00:31;7.20;;;5.20;;
19929;SDS011;10127;47.780;9.606;2023-04-08T02:03:00;5.80;;;4.80;;
19929;SDS011;10127;47.780;9.606;2023-04-08T02:05:27;8.20;;;5.18;;
19929;SDS011;10127;47.780;9.606;2023-04-08T02:07:52;6.63;;;5.88;;
19929;SDS011;10127;47.780;9.606;2023-04-08T02:10:18;4.97;;;3.90;;
19929;SDS011;10127;47.780;9.606;2023-04-08T02:12:43;6.85;;;5.22;;
19929;SDS011;10127;47.780;9.606;2023-04-08T02:15:10;7.03;;;4.40;;
19929;SDS011;10127;47.780;9.606;2023-04-08T02:20:18;5.85;;;4.88;;
19929;SDS011;10127;47.780;9.606;2023-04-08T02:25:33;7.88;;;5.15;;
19929;SDS011;10127;47.780;9.606;2023-04-08T02:28:05;5.78;;;4.57;;
19929;SDS011;10127;47.780;9.606;2023-04-08T02:30:33;10.30;;;5.07;;
19929;SDS011;10127;47.780;9.606;2023-04-08T02:33:02;8.85;;;4.30;;
19929;SDS011;10127;47.780;9.606;2023-04-08T02:35:29;6.28;;;4.93;;
19929;SDS011;10127;47.780;9.606;2023-04-08T02:37:56;8.07;;;5.47;;
19929;SDS011;10127;47.780;9.606;2023-04-08T02:42:57;6.60;;;4.88;;
19929;SDS011;10127;47.780;9.606;2023-04-08T02:45:27;7.75;;;4.82;;
19929;SDS011;10127;47.780;9.606;2023-04-08T02:47:55;8.93;;;5.20;;
19929;SDS011;10127;47.780;9.606;2023-04-08T03:11:05;8.45;;;6.20;;
19929;SDS011;10127;47.780;9.606;2023-04-08T03:13:31;7.82;;;5.60;;
19929;SDS011;10127;47.780;9.606;2023-04-08T03:15:57;6.05;;;5.35;;
19929;SDS011;10127;47.780;9.606;2023-04-08T03:18:23;7.88;;;5.85;;
19929;SDS011;10127;47.780;9.606;2023-04-08T03:20:48;7.03;;;5.70;;
19929;SDS011;10127;47.780;9.606;2023-04-08T03:23:14;7.07;;;5.88;;
19929;SDS011;10127;47.780;9.606;2023-04-08T03:25:40;8.07;;;6.13;;
19929;SDS011;10127;47.780;9.606;2023-04-08T03:28:05;10.80;;;6.28;;
19929;SDS011;10127;47.780;9.606;2023-04-08T03:30:31;6.80;;;5.85;;
19929;SDS011;10127;47.780;9.606;2023-04-08T03:32:57;8.15;;;6.40;;
19929;SDS011;10127;47.780;9.606;2023-04-08T03:35:29;8.27;;;6.57;;
19929;SDS011;10127;47.780;9.606;2023-04-08T03:37:54;8.82;;;7.28;;
19929;SDS011;10127;47.780;9.606;2023-04-08T03:40:20;9.18;;;7.32;;
19929;SDS011;10127;47.780;9.606;2023-04-08T03:42:45;8.45;;;6.93;;
19929;SDS011;10127;47.780;9.606;2023-04-08T03:45:11;10.02;;;6.85;;
19929;SDS011;10127;47.780;9.606;2023-04-08T03:47:36;11.60;;;8.10;;
19929;SDS011;10127;47.780;9.606;2023-04-08T03:50:02;7.95;;;6.35;;
19929;SDS011;10127;47.780;9.606;2023-04-08T03:52:28;8.55;;;6.90;;
19929;SDS011;10127;47.780;9.606;2023-04-08T03:54:53;8.10;;;6.20;;
19929;SDS011;10127;47.780;9.606;2023-04-08T03:57:19;8.45;;;5.90;;
19929;SDS011;10127;47.780;9.606;2023-04-08T03:59:45;7.82;;;6.28;;
19929;SDS011;10127;47.780;9.606;2023-04-08T04:02:10;9.00;;;7.30;;
19929;SDS011;10127;47.780;9.606;2023-04-08T04:04:43;9.35;;;6.57;;
19929;SDS011;10127;47.780;9.606;2023-04-08T04:07:08;8.57;;;6.25;;
19929;SDS011;10127;47.780;9.606;2023-04-08T04:09:34;9.05;;;6.78;;
19929;SDS011;10127;47.780;9.606;2023-04-08T04:11:59;10.48;;;7.85;;
19929;SDS011;10127;47.780;9.606;2023-04-08T04:14:25;9.10;;;7.35;;
19929;SDS011;10127;47.780;9.606;2023-04-08T04:16:51;11.23;;;7.45;;
19929;SDS011;10127;47.780;9.606;2023-04-08T04:19:16;11.48;;;7.60;;
19929;SDS011;10127;47.780;9.606;2023-04-08T04:21:42;9.85;;;7.47;;
19929;SDS011;10127;47.780;9.606;2023-04-08T04:24:08;8.73;;;7.25;;
19929;SDS011;10127;47.780;9.606;2023-04-08T04:26:33;11.70;;;8.45;;
19929;SDS011;10127;47.780;9.606;2023-04-08T04:28:59;11.68;;;8.32;;
19929;SDS011;10127;47.780;9.606;2023-04-08T04:31:25;9.70;;;8.40;;
19929;SDS011;10127;47.780;9.606;2023-04-08T04:33:50;11.10;;;8.75;;
19929;SDS011;10127;47.780;9.606;2023-04-08T04:36:16;10.05;;;8.13;;
19929;SDS011;10127;47.780;9.606;2023-04-08T04:38:42;10.18;;;8.07;;
19929;SDS011;10127;47.780;9.606;2023-04-08T04:41:08;9.70;;;8.23;;
19929;SDS011;10127;47.780;9.606;2023-04-08T04:43:34;9.40;;;8.35;;
19929;SDS011;10127;47.780;9.606;2023-04-08T04:45:59;10.55;;;8.38;;
19929;SDS011;10127;47.780;9.606;2023-04-08T04:48:26;12.00;;;9.30;;
19929;SDS011;10127;47.780;9.606;2023-04-08T04:50:55;11.77;;;8.93;;
19929;SDS011;10127;47.780;9.606;2023-04-08T04:53:21;11.45;;;9.30;;
19929;SDS011;10127;47.780;9.606;2023-04-08T04:55:46;13.30;;;9.20;;
19929;SDS011;10127;47.780;9.606;2023-04-08T04:58:12;11.77;;;8.48;;
19929;SDS011;10127;47.780;9.606;2023-04-08T05:00:37;12.15;;;9.40;;
19929;SDS011;10127;47.780;9.606;2023-04-08T05:03:03;12.90;;;9.25;;
19929;SDS011;10127;47.780;9.606;2023-04-08T05:05:29;11.20;;;8.57;;
19929;SDS011;10127;47.780;9.606;2023-04-08T05:07:54;10.20;;;8.65;;
19929;SDS011;10127;47.780;9.606;2023-04-08T05:10:20;10.93;;;9.38;;
19929;SDS011;10127;47.780;9.606;2023-04-08T05:12:45;11.20;;;8.75;;
19929;SDS011;10127;47.780;9.606;2023-04-08T05:15:11;9.82;;;8.60;;
19929;SDS011;10127;47.780;9.606;2023-04-08T05:17:37;12.80;;;9.07;;
19929;SDS011;10127;47.780;9.606;2023-04-08T05:20:02;11.07;;;8.77;;
19929;SDS011;10127;47.780;9.606;2023-04-08T05:22:28;10.32;;;7.32;;
19929;SDS011;10127;47.780;9.606;2023-04-08T05:24:54;9.02;;;7.72;;
19929;SDS011;10127;47.780;9.606;2023-04-08T05:27:19;10.07;;;7.25;;
19929;SDS011;10127;47.780;9.606;2023-04-08T05:29:45;8.30;;;7.43;;
19929;SDS011;10127;47.780;9.606;2023-04-08T05:32:11;8.32;;;7.50;;
19929;SDS011;10127;47.780;9.606;2023-04-08T05:34:36;8.13;;;6.70;;
19929;SDS011;10127;47.780;9.606;2023-04-08T05:37:02;8.52;;;7.55;;
19929;SDS011;10127;47.780;9.606;2023-04-08T05:39:28;8.65;;;7.75;;
19929;SDS011;10127;47.780;9.606;2023-04-08T05:41:53;8.00;;;6.88;;
19929;SDS011;10127;47.780;9.606;2023-04-08T05:44:19;7.72;;;6.75;;
19929;SDS011;10127;47.780;9.606;2023-04-08T05:46:44;8.30;;;7.40;;
19929;SDS011;10127;47.780;9.606;2023-04-08T05:49:10;8.75;;;7.88;;
19929;SDS011;10127;47.780;9.606;2023-04-08T05:51:36;7.53;;;6.72;;
19929;SDS011;10127;47.780;9.606;2023-04-08T05:54:02;9.20;;;7.78;;
19929;SDS011;10127;47.780;9.606;2023-04-08T05:56:28;8.00;;;7.07;;
19929;SDS011;10127;47.780;9.606;2023-04-08T05:58:56;7.75;;;6.80;;
19929;SDS011;10127;47.780;9.606;2023-04-08T06:01:22;8.88;;;7.93;;
19929;SDS011;10127;47.780;9.606;2023-04-08T06:03:47;7.22;;;6.53;;
19929;SDS011;10127;47.780;9.606;2023-04-08T06:06:13;9.45;;;7.63;;
19929;SDS011;10127;47.780;9.606;2023-04-08T06:08:39;9.98;;;7.63;;
19929;SDS011;10127;47.780;9.606;2023-04-08T06:11:05;8.40;;;7.13;;
19929;SDS011;10127;47.780;9.606;2023-04-08T06:13:31;8.82;;;6.80;;
19929;SDS011;10127;47.780;9.606;2023-04-08T06:15:56;9.15;;;7.00;;
19929;SDS011;10127;47.780;9.606;2023-04-08T06:18:22;8.40;;;7.07;;
19929;SDS011;10127;47.780;9.606;2023-04-08T06:20:48;6.03;;;5.40;;
19929;SDS011;10127;47.780;9.606;2023-04-08T06:23:14;7.70;;;6.40;;
19929;SDS011;10127;47.780;9.606;2023-04-08T06:25:40;7.38;;;6.40;;
19929;SDS011;10127;47.780;9.606;2023-04-08T06:28:06;7.97;;;5.93;;
19929;SDS011;10127;47.780;9.606;2023-04-08T06:30:31;7.43;;;6.38;;
19929;SDS011;10127;47.780;9.606;2023-04-08T06:32:57;6.38;;;5.70;;
19929;SDS011;10127;47.780;9.606;2023-04-08T06:35:22;6.53;;;5.07;;
19929;SDS011;10127;47.780;9.606;2023-04-08T06:37:48;5.43;;;4.88;;
19929;SDS011;10127;47.780;9.606;2023-04-08T06:40:14;5.85;;;4.22;;
19929;SDS011;10127;47.780;9.606;2023-04-08T06:42:40;4.97;;;4.03;;
19929;SDS011;10127;47.780;9.606;2023-04-08T06:45:07;3.88;;;3.42;;
19929;SDS011;10127;47.780;9.606;2023-04-08T06:47:33;3.75;;;3.30;;
19929;SDS011;10127;47.780;9.606;2023-04-08T06:49:58;3.47;;;2.75;;
19929;SDS011;10127;47.780;9.606;2023-04-08T06:52:24;3.20;;;2.88;;
19929;SDS011;10127;47.780;9.606;2023-04-08T06:54:50;5.47;;;3.45;;
19929;SDS011;10127;47.780;9.606;2023-04-08T06:57:15;3.40;;;3.08;;
19929;SDS011;10127;47.780;9.606;2023-04-08T06:59:41;4.50;;;3.70;;
19929;SDS011;10127;47.780;9.606;2023-04-08T07:02:06;5.22;;;3.60;;
19929;SDS011;10127;47.780;9.606;2023-04-08T07:04:32;4.75;;;3.80;;
19929;SDS011;10127;47.780;9.606;2023-04-08T07:06:57;5.53;;;4.35;;
19929;SDS011;10127;47.780;9.606;2023-04-08T07:09:23;5.40;;;4.63;;
19929;SDS011;10127;47.780;9.606;2023-04-08T07:11:48;5.70;;;4.88;;
19929;SDS011;10127;47.780;9.606;2023-04-08T07:14:14;5.63;;;4.80;;
19929;SDS011;10127;47.780;9.606;2023-04-08T07:16:40;5.80;;;5.20;;
19929;SDS011;10127;47.780;9.606;2023-04-08T07:19:05;8.57;;;5.63;;
19929;SDS011;10127;47.780;9.606;2023-04-08T07:21:31;5.63;;;4.95;;
19929;SDS011;10127;47.780;9.606;2023-04-08T07:23:57;6.20;;;5.20;;
19929;SDS011;10127;47.780;9.606;2023-04-08T07:26:22;6.75;;;5.40;;
19929;SDS011;10127;47.780;9.606;2023-04-08T07:28:48;5.95;;;5.30;;
19929;SDS011;10127;47.780;9.606;2023-04-08T07:31:16;5.60;;;4.97;;
19929;SDS011;10127;47.780;9.606;2023-04-08T07:33:43;6.47;;;5.43;;
19929;SDS011;10127;47.780;9.606;2023-04-08T07:36:09;6.20;;;5.32;;
19929;SDS011;10127;47.780;9.606;2023-04-08T07:38:36;6.32;;;5.13;;
19929;SDS011;10127;47.780;9.606;2023-04-08T07:41:02;5.47;;;4.50;;
19929;SDS011;10127;47.780;9.606;2023-04-08T07:43:27;6.32;;;4.68;;
19929;SDS011;10127;47.780;9.606;2023-04-08T07:45:58;6.95;;;5.05;;
19929;SDS011;10127;47.780;9.606;2023-04-08T07:48:27;7.45;;;5.00;;
19929;SDS011;10127;47.780;9.606;2023-04-08T07:50:53;5.63;;;4.90;;
19929;SDS011;10127;47.780;9.606;2023-04-08T07:53:19;6.20;;;5.60;;
19929;SDS011;10127;47.780;9.606;2023-04-08T07:55:46;7.35;;;5.93;;
19929;SDS011;10127;47.780;9.606;2023-04-08T07:58:12;10.93;;;5.57;;
19929;SDS011;10127;47.780;9.606;2023-04-08T08:00:37;6.78;;;5.32;;
19929;SDS011;10127;47.780;9.606;2023-04-08T08:03:04;7.22;;;6.45;;
19929;SDS011;10127;47.780;9.606;2023-04-08T08:05:30;8.10;;;5.90;;
19929;SDS011;10127;47.780;9.606;2023-04-08T08:07:55;7.38;;;6.57;;
19929;SDS011;10127;47.780;9.606;2023-04-08T08:10:21;10.40;;;6.78;;
19929;SDS011;10127;47.780;9.606;2023-04-08T08:12:47;9.77;;;6.60;;
19929;SDS011;10127;47.780;9.606;2023-04-08T08:15:12;7.10;;;6.40;;
19929;SDS011;10127;47.780;9.606;2023-04-08T08:17:38;8.93;;;7.40;;
19929;SDS011;10127;47.780;9.606;2023-04-08T08:20:04;7.07;;;6.18;;
19929;SDS011;10127;47.780;9.606;2023-04-08T08:22:31;9.63;;;6.47;;
19929;SDS011;10127;47.780;9.606;2023-04-08T08:24:56;9.27;;;7.28;;
19929;SDS011;10127;47.780;9.606;2023-04-08T08:27:30;11.55;;;7.70;;
19929;SDS011;10127;47.780;9.606;2023-04-08T08:29:55;9.10;;;7.15;;
19929;SDS011;10127;47.780;9.606;2023-04-08T08:32:21;8.85;;;6.80;;
19929;SDS011;10127;47.780;9.606;2023-04-08T08:34:46;9.25;;;7.00;;
19929;SDS011;10127;47.780;9.606;2023-04-08T08:37:12;8.05;;;6.72;;
19929;SDS011;10127;47.780;9.606;2023-04-08T08:39:43;10.38;;;6.95;;
19929;SDS011;10127;47.780;9.606;2023-04-08T08:42:19;10.45;;;6.88;;
19929;SDS011;10127;47.780;9.606;2023-04-08T08:44:48;7.88;;;6.07;;
19929;SDS011;10127;47.780;9.606;2023-04-08T08:47:15;8.05;;;6.78;;
19929;SDS011;10127;47.780;9.606;2023-04-08T08:49:41;7.50;;;6.63;;
19929;SDS011;10127;47.780;9.606;2023-04-08T08:52:07;7.72;;;6.57;;
19929;SDS011;10127;47.780;9.606;2023-04-08T08:54:33;8.77;;;6.85;;
19929;SDS011;10127;47.780;9.606;2023-04-08T08:56:59;8.30;;;7.05;;
19929;SDS011;10127;47.780;9.606;2023-04-08T08:59:25;8.32;;;6.82;;
19929;SDS011;10127;47.780;9.606;2023-04-08T09:01:51;10.65;;;7.07;;
19929;SDS011;10127;47.780;9.606;2023-04-08T09:04:17;9.60;;;7.90;;
19929;SDS011;10127;47.780;9.606;2023-04-08T09:06:45;9.70;;;7.57;;
19929;SDS011;10127;47.780;9.606;2023-04-08T09:09:11;11.07;;;7.05;;
19929;SDS011;10127;47.780;9.606;2023-04-08T09:11:41;10.07;;;7.63;;
19929;SDS011;10127;47.780;9.606;2023-04-08T09:14:22;9.88;;;7.85;;
19929;SDS011;10127;47.780;9.606;2023-04-08T09:16:49;9.07;;;6.78;;
19929;SDS011;10127;47.780;9.606;2023-04-08T09:19:15;8.13;;;6.38;;
19929;SDS011;10127;47.780;9.606;2023-04-08T09:21:41;11.35;;;7.63;;
19929;SDS011;10127;47.780;9.606;2023-04-08T09:24:07;9.98;;;6.25;;
19929;SDS011;10127;47.780;9.606;2023-04-08T09:26:35;8.27;;;6.38;;
19929;SDS011;10127;47.780;9.606;2023-04-08T09:29:06;9.30;;;6.32;;
19929;SDS011;10127;47.780;9.606;2023-04-08T09:31:33;8.43;;;6.40;;
19929;SDS011;10127;47.780;9.606;2023-04-08T09:34:15;7.30;;;6.13;;
19929;SDS011;10127;47.780;9.606;2023-04-08T09:36:45;7.72;;;6.07;;
19929;SDS011;10127;47.780;9.606;2023-04-08T09:39:13;7.35;;;6.30;;
19929;SDS011;10127;47.780;9.606;2023-04-08T09:41:47;8.27;;;6.10;;
19929;SDS011;10127;47.780;9.606;2023-04-08T09:44:15;7.50;;;6.00;;
19929;SDS011;10127;47.780;9.606;2023-04-08T09:46:48;8.57;;;6.72;;
19929;SDS011;10127;47.780;9.606;2023-04-08T09:49:43;7.93;;;6.97;;
19929;SDS011;10127;47.780;9.606;2023-04-08T09:52:14;8.65;;;7.30;;
19929;SDS011;10127;47.780;9.606;2023-04-08T09:54:44;8.18;;;6.82;;
19929;SDS011;10127;47.780;9.606;2023-04-08T09:57:20;9.88;;;6.70;;
19929;SDS011;10127;47.780;9.606;2023-04-08T09:59:55;9.63;;;7.80;;
19929;SDS011;10127;47.780;9.606;2023-04-08T10:02:28;11.35;;;8.50;;
19929;SDS011;10127;47.780;9.606;2023-04-08T10:04:58;11.00;;;7.85;;
19929;SDS011;10127;47.780;9.606;2023-04-08T10:07:27;12.02;;;7.63;;
19929;SDS011;10127;47.780;9.606;2023-04-08T10:09:53;11.63;;;8.20;;
19929;SDS011;10127;47.780;9.606;2023-04-08T10:12:18;10.70;;;7.95;;
19929;SDS011;10127;47.780;9.606;2023-04-08T10:17:48;11.63;;;8.15;;
19929;SDS011;10127;47.780;9.606;2023-04-08T10:22:59;15.95;;;8.20;;
19929;SDS011;10127;47.780;9.606;2023-04-08T10:30:44;10.57;;;8.07;;
19929;SDS011;10127;47.780;9.606;2023-04-08T10:36:07;10.52;;;8.05;;
19929;SDS011;10127;47.780;9.606;2023-04-08T10:38:34;12.07;;;9.10;;
19929;SDS011;10127;47.780;9.606;2023-04-08T10:41:00;11.50;;;8.13;;
19929;SDS011;10127;47.780;9.606;2023-04-08T10:43:27;9.57;;;7.57;;
19929;SDS011;10127;47.780;9.606;2023-04-08T10:45:59;11.93;;;7.72;;
19929;SDS011;10127;47.780;9.606;2023-04-08T10:48:25;9.85;;;7.90;;
19929;SDS011;10127;47.780;9.606;2023-04-08T10:50:54;10.82;;;7.63;;
19929;SDS011;10127;47.780;9.606;2023-04-08T10:53:33;9.40;;;6.82;;
19929;SDS011;10127;47.780;9.606;2023-04-08T10:58:50;8.15;;;6.65;;
19929;SDS011;10127;47.780;9.606;2023-04-08T11:01:18;8.68;;;6.95;;
19929;SDS011;10127;47.780;9.606;2023-04-08T11:03:44;9.73;;;7.13;;
19929;SDS011;10127;47.780;9.606;2023-04-08T11:06:09;9.75;;;7.50;;
19929;SDS011;10127;47.780;9.606;2023-04-08T11:08:36;10.25;;;7.90;;
19929;SDS011;10127;47.780;9.606;2023-04-08T11:11:02;9.85;;;7.35;;
19929;SDS011;10127;47.780;9.606;2023-04-08T11:13:33;9.63;;;7.88;;
19929;SDS011;10127;47.780;9.606;2023-04-08T11:16:03;10.00;;;7.45;;
19929;SDS011;10127;47.780;9.606;2023-04-08T11:18:30;11.43;;;8.70;;
19929;SDS011;10127;47.780;9.606;2023-04-08T11:20:57;10.77;;;8.77;;
19929;SDS011;10127;47.780;9.606;2023-04-08T11:23:25;10.98;;;8.98;;
19929;SDS011;10127;47.780;9.606;2023-04-08T11:25:51;9.85;;;7.55;;
19929;SDS011;10127;47.780;9.606;2023-04-08T11:28:17;10.70;;;8.18;;
19929;SDS011;10127;47.780;9.606;2023-04-08T11:30:43;10.23;;;8.05;;
19929;SDS011;10127;47.780;9.606;2023-04-08T11:33:09;9.10;;;7.53;;
19929;SDS011;10127;47.780;9.606;2023-04-08T11:35:40;9.05;;;7.40;;
19929;SDS011;10127;47.780;9.606;2023-04-08T11:38:07;10.98;;;7.88;;
19929;SDS011;10127;47.780;9.606;2023-04-08T11:40:33;10.70;;;8.25;;
19929;SDS011;10127;47.780;9.606;2023-04-08T11:42:59;11.23;;;8.20;;
19929;SDS011;10127;47.780;9.606;2023-04-08T11:45:37;10.35;;;8.35;;
19929;SDS011;10127;47.780;9.606;2023-04-08T11:48:10;11.02;;;8.25;;
19929;SDS011;10127;47.780;9.606;2023-04-08T11:50:38;11.40;;;9.05;;
19929;SDS011;10127;47.780;9.606;2023-04-08T11:53:14;12.15;;;8.73;;
19929;SDS011;10127;47.780;9.606;2023-04-08T11:55:43;10.18;;;8.13;;
19929;SDS011;10127;47.780;9.606;2023-04-08T11:58:09;11.15;;;7.97;;
19929;SDS011;10127;47.780;9.606;2023-04-08T12:00:35;11.23;;;9.18;;
19929;SDS011;10127;47.780;9.606;2023-04-08T12:03:01;11.57;;;9.32;;
19929;SDS011;10127;47.780;9.606;2023-04-08T12:05:27;11.25;;;8.95;;
19929;SDS011;10127;47.780;9.606;2023-04-08T12:07:52;7.93;;;6.63;;
19929;SDS011;10127;47.780;9.606;2023-04-08T12:10:18;9.27;;;6.95;;
19929;SDS011;10127;47.780;9.606;2023-04-08T12:12:43;10.65;;;8.07;;
19929;SDS011;10127;47.780;9.606;2023-04-08T12:15:09;24.90;;;14.65;;
19929;SDS011;10127;47.780;9.606;2023-04-08T12:17:35;10.77;;;8.48;;
19929;SDS011;10127;47.780;9.606;2023-04-08T12:20:02;10.30;;;7.72;;
19929;SDS011;10127;47.780;9.606;2023-04-08T12:22:29;9.25;;;7.72;;
19929;SDS011;10127;47.780;9.606;2023-04-08T12:24:55;9.57;;;6.93;;
19929;SDS011;10127;47.780;9.606;2023-04-08T12:27:20;7.20;;;5.90;;
19929;SDS011;10127;47.780;9.606;2023-04-08T12:29:46;7.07;;;5.40;;
19929;SDS011;10127;47.780;9.606;2023-04-08T12:32:13;6.95;;;5.60;;
19929;SDS011;10127;47.780;9.606;2023-04-08T12:34:39;7.55;;;5.70;;
19929;SDS011;10127;47.780;9.606;2023-04-08T12:37:05;9.13;;;6.82;;
19929;SDS011;10127;47.780;9.606;2023-04-08T12:39:30;8.70;;;7.47;;
19929;SDS011;10127;47.780;9.606;2023-04-08T12:41:56;8.30;;;6.93;;
19929;SDS011;10127;47.780;9.606;2023-04-08T12:44:22;11.05;;;6.97;;
19929;SDS011;10127;47.780;9.606;2023-04-08T12:46:47;8.75;;;6.85;;
19929;SDS011;10127;47.780;9.606;2023-04-08T12:49:13;10.38;;;6.60;;
19929;SDS011;10127;47.780;9.606;2023-04-08T12:51:38;8.38;;;5.90;;
19929;SDS011;10127;47.780;9.606;2023-04-08T12:54:04;6.88;;;5.70;;
19929;SDS011;10127;47.780;9.606;2023-04-08T12:56:30;8.80;;;6.30;;
19929;SDS011;10127;47.780;9.606;2023-04-08T12:58:56;6.63;;;5.65;;
19929;SDS011;10127;47.780;9.606;2023-04-08T13:01:22;11.05;;;6.97;;
19929;SDS011;10127;47.780;9.606;2023-04-08T13:03:48;8.55;;;6.78;;
19929;SDS011;10127;47.780;9.606;2023-04-08T13:06:14;7.82;;;6.65;;
19929;SDS011;10127;47.780;9.606;2023-04-08T13:08:40;8.32;;;6.55;;
19929;SDS011;10127;47.780;9.606;2023-04-08T13:11:06;7.82;;;6.72;;
19929;SDS011;10127;47.780;9.606;2023-04-08T13:13:32;7.50;;;6.38;;
19929;SDS011;10127;47.780;9.606;2023-04-08T13:15:58;9.02;;;7.47;;
19929;SDS011;10127;47.780;9.606;2023-04-08T13:18:23;10.57;;;6.60;;
19929;SDS011;10127;47.780;9.606;2023-04-08T13:20:49;9.93;;;6.88;;
19929;SDS011;10127;47.780;9.606;2023-04-08T13:23:14;8.63;;;7.22;;
19929;SDS011;10127;47.780;9.606;2023-04-08T13:25:41;7.93;;;6.97;;
19929;SDS011;10127;47.780;9.606;2023-04-08T13:28:07;7.78;;;6.85;;
19929;SDS011;10127;47.780;9.606;2023-04-08T13:30:33;10.00;;;7.72;;
19929;SDS011;10127;47.780;9.606;2023-04-08T13:32:59;9.23;;;7.32;;
19929;SDS011;10127;47.780;9.606;2023-04-08T13:35:24;9.18;;;6.47;;
19929;SDS011;10127;47.780;9.606;2023-04-08T13:37:50;10.50;;;7.63;;
19929;SDS011;10127;47.780;9.606;2023-04-08T13:40:16;9.23;;;7.22;;
19929;SDS011;10127;47.780;9.606;2023-04-08T13:42:42;9.30;;;7.88;;
19929;SDS011;10127;47.780;9.606;2023-04-08T13:45:14;11.27;;;8.70;;
19929;SDS011;10127;47.780;9.606;2023-04-08T13:47:39;7.93;;;6.90;;
19929;SDS011;10127;47.780;9.606;2023-04-08T13:50:06;10.35;;;8.27;;
19929;SDS011;10127;47.780;9.606;2023-04-08T13:52:32;11.88;;;7.60;;
19929;SDS011;10127;47.780;9.606;2023-04-08T13:54:58;8.40;;;6.97;;
19929;SDS011;10127;47.780;9.606;2023-04-08T13:57:24;10.70;;;8.10;;
19929;SDS011;10127;47.780;9.606;2023-04-08T13:59:50;10.98;;;8.27;;
19929;SDS011;10127;47.780;9.606;2023-04-08T14:02:15;11.13;;;8.40;;
19929;SDS011;10127;47.780;9.606;2023-04-08T14:04:41;10.10;;;8.13;;
19929;SDS011;10127;47.780;9.606;2023-04-08T14:07:13;12.25;;;8.32;;
19929;SDS011;10127;47.780;9.606;2023-04-08T14:09:38;9.73;;;7.47;;
19929;SDS011;10127;47.780;9.606;2023-04-08T14:12:04;10.48;;;7.75;;
19929;SDS011;10127;47.780;9.606;2023-04-08T14:14:30;9.70;;;7.80;;
19929;SDS011;10127;47.780;9.606;2023-04-08T14:16:55;9.43;;;7.88;;
19929;SDS011;10127;47.780;9.606;2023-04-08T14:19:21;8.73;;;7.25;;
19929;SDS011;10127;47.780;9.606;2023-04-08T14:21:47;13.20;;;8.93;;
19929;SDS011;10127;47.780;9.606;2023-04-08T14:24:12;9.05;;;7.90;;
19929;SDS011;10127;47.780;9.606;2023-04-08T14:26:38;8.40;;;7.50;;
19929;SDS011;10127;47.780;9.606;2023-04-08T14:29:04;9.02;;;7.15;;
19929;SDS011;10127;47.780;9.606;2023-04-08T14:31:30;11.15;;;9.40;;
19929;SDS011;10127;47.780;9.606;2023-04-08T14:33:57;14.00;;;9.75;;
19929;SDS011;10127;47.780;9.606;2023-04-08T14:36:23;11.13;;;8.85;;
19929;SDS011;10127;47.780;9.606;2023-04-08T14:38:49;9.07;;;7.78;;
19929;SDS011;10127;47.780;9.606;2023-04-08T14:41:15;9.65;;;7.05;;
19929;SDS011;10127;47.780;9.606;2023-04-08T14:43:41;10.90;;;8.60;;
19929;SDS011;10127;47.780;9.606;2023-04-08T14:46:06;9.63;;;8.40;;
19929;SDS011;10127;47.780;9.606;2023-04-08T14:48:32;9.77;;;7.22;;
19929;SDS011;10127;47.780;9.606;2023-04-08T14:50:57;11.07;;;7.25;;
19929;SDS011;10127;47.780;9.606;2023-04-08T14:53:24;11.80;;;9.30;;
19929;SDS011;10127;47.780;9.606;2023-04-08T14:55:50;12.40;;;9.70;;
19929;SDS011;10127;47.780;9.606;2023-04-08T14:58:16;12.38;;;10.00;;
19929;SDS011;10127;47.780;9.606;2023-04-08T15:00:41;16.00;;;10.52;;
19929;SDS011;10127;47.780;9.606;2023-04-08T15:03:09;11.68;;;9.63;;
19929;SDS011;10127;47.780;9.606;2023-04-08T15:05:37;16.33;;;10.18;;
19929;SDS011;10127;47.780;9.606;2023-04-08T15:08:03;12.88;;;10.10;;
19929;SDS011;10127;47.780;9.606;2023-04-08T15:10:29;12.88;;;10.98;;
19929;SDS011;10127;47.780;9.606;2023-04-08T15:12:54;16.02;;;10.77;;
19929;SDS011;10127;47.780;9.606;2023-04-08T15:15:20;16.67;;;11.15;;
19929;SDS011;10127;47.780;9.606;2023-04-08T15:17:46;12.15;;;10.27;;
19929;SDS011;10127;47.780;9.606;2023-04-08T15:20:11;13.98;;;10.15;;
19929;SDS011;10127;47.780;9.606;2023-04-08T15:22:37;12.57;;;10.85;;
19929;SDS011;10127;47.780;9.606;2023-04-08T15:25:03;13.45;;;11.15;;
19929;SDS011;10127;47.780;9.606;2023-04-08T15:27:30;13.35;;;11.15;;
19929;SDS011;10127;47.780;9.606;2023-04-08T15:29:56;15.13;;;11.50;;
19929;SDS011;10127;47.780;9.606;2023-04-08T15:32:22;13.10;;;10.63;;